Time;durP1;ratioP1;P1;durP2;ratioP2;P2;SDS_P1;SDS_P2;PMS_P1;PMS_P2;Temp;Humidity;BMP_temperature;BMP_pressure;BME280_temperature;BME280_humidity;BME280_pressure;Samples;Min_cycle;Max_cycle;Signal;HPM_P1;HPM_P2
2023/05/17 00:02:02;;;;;;;;;;;10.90;99.90;;;;;;8385153;28;19929;-74
2023/05/17 00:06:04;;;;;;;;;;;10.90;99.90;;;;;;8385501;28;19929;-73
2023/05/17 00:10:06;;;;;;;;;;;10.90;99.90;;;;;;8378845;28;19924;-74
2023/05/17 00:14:08;;;;;;;;;;;10.90;99.90;;;;;;8404307;28;19932;-74
2023/05/17 00:18:09;;;;;;;;;;;10.90;99.90;;;;;;8391507;28;19925;-73
2023/05/17 00:22:11;;;;;;;;;;;10.80;99.90;;;;;;8395073;28;19932;-74
2023/05/17 00:26:13;;;;;;;;;;;10.80;99.90;;;;;;8393149;28;19989;-74
2023/05/17 00:30:14;;;;;;;;;;;10.70;99.90;;;;;;8367115;28;19925;-74
2023/05/17 00:34:16;;;;;;;;;;;10.70;99.90;;;;;;8385910;28;19936;-74
2023/05/17 00:38:18;;;;;;;;;;;10.60;99.90;;;;;;8382742;28;19935;-73
2023/05/17 00:42:19;;;;;;;;;;;10.50;99.90;;;;;;8393988;28;19925;-74
2023/05/17 00:46:21;;;;;;;;;;;10.50;99.90;;;;;;8385505;28;19993;-74
2023/05/17 00:50:23;;;;;;;;;;;10.50;99.90;;;;;;8397661;28;19924;-73
2023/05/17 00:54:25;;;;;;;;;;;10.40;99.90;;;;;;8393085;28;20076;-74
2023/05/17 00:58:26;;;;;;;;;;;10.40;99.90;;;;;;8385059;28;19933;-74
2023/05/17 01:02:28;;;;;;;;;;;10.30;99.90;;;;;;8400223;28;19975;-74
2023/05/17 01:06:30;;;;;;;;;;;10.30;99.90;;;;;;8371000;28;20403;-74
2023/05/17 01:10:51;;;;;;;;;;;10.20;99.90;;;;;;8400306;28;19932;-74
2023/05/17 01:15:07;;;;;;;;;;;10.10;99.90;;;;;;8381055;28;19933;-74
2023/05/17 01:19:08;;;;;;;;;;;10.00;99.90;;;;;;8405952;28;19929;-73
2023/05/17 01:23:29;;;;;;;;;;;10.00;99.90;;;;;;8388706;28;20330;-74
2023/05/17 01:27:30;;;;;;;;;;;10.10;99.90;;;;;;8387123;28;19928;-74
2023/05/17 01:31:32;;;;;;;;;;;10.00;99.90;;;;;;8393674;28;19932;-73
2023/05/17 01:35:34;;;;;;;;;;;10.00;99.90;;;;;;8390641;28;19924;-75
2023/05/17 01:39:36;;;;;;;;;;;10.00;99.90;;;;;;8369165;28;19929;-74
2023/05/17 01:43:49;;;;;;;;;;;10.00;99.90;;;;;;8383648;28;19925;-74
2023/05/17 01:47:54;;;;;;;;;;;10.00;99.90;;;;;;8372509;28;19931;-74
2023/05/17 01:52:10;;;;;;;;;;;10.10;99.90;;;;;;8385708;28;20004;-74
2023/05/17 02:01:47;;;;;;;;;;;10.20;99.90;;;;;;8384644;28;19959;-74
2023/05/17 02:05:48;;;;;;;;;;;10.20;99.90;;;;;;8379695;28;19925;-74
2023/05/17 02:09:50;;;;;;;;;;;10.20;99.90;;;;;;8384007;28;19967;-74
2023/05/17 02:13:52;;;;;;;;;;;10.20;99.90;;;;;;8391169;28;19947;-74
2023/05/17 02:17:53;;;;;;;;;;;10.20;99.90;;;;;;8370696;28;20312;-74
2023/05/17 02:21:55;;;;;;;;;;;10.30;99.90;;;;;;8371892;28;19978;-74
2023/05/17 02:25:57;;;;;;;;;;;10.30;99.90;;;;;;8372140;28;19931;-74
2023/05/17 02:30:00;;;;;;;;;;;10.20;99.90;;;;;;8384232;28;19931;-74
2023/05/17 02:34:02;;;;;;;;;;;10.20;99.90;;;;;;8378184;28;20273;-74
2023/05/17 02:38:04;;;;;;;;;;;10.20;99.90;;;;;;8382513;28;19976;-74
2023/05/17 02:42:05;;;;;;;;;;;10.10;99.90;;;;;;8389358;28;19924;-74
2023/05/17 02:46:07;;;;;;;;;;;10.10;99.90;;;;;;8384825;28;19951;-74
2023/05/17 02:50:09;;;;;;;;;;;10.10;99.90;;;;;;8380788;28;19973;-74
2023/05/17 02:54:11;;;;;;;;;;;10.00;99.90;;;;;;8379370;28;19924;-74
2023/05/17 02:58:12;;;;;;;;;;;10.10;99.90;;;;;;8371319;28;19924;-74
2023/05/17 03:02:14;;;;;;;;;;;10.00;99.90;;;;;;8387648;28;20276;-74
2023/05/17 03:06:16;;;;;;;;;;;10.00;99.90;;;;;;8351589;28;19951;-74
2023/05/17 03:10:18;;;;;;;;;;;10.00;99.90;;;;;;8363429;28;20364;-74
2023/05/17 03:14:19;;;;;;;;;;;10.00;99.90;;;;;;8355693;28;20277;-74
2023/05/17 03:18:21;;;;;;;;;;;10.00;99.90;;;;;;8351854;28;19947;-74
2023/05/17 03:22:23;;;;;;;;;;;10.00;99.90;;;;;;8355825;28;19929;-73
2023/05/17 03:26:26;;;;;;;;;;;10.00;99.90;;;;;;8355139;28;19970;-74
2023/05/17 03:30:27;;;;;;;;;;;10.00;99.90;;;;;;8352657;28;19924;-74
2023/05/17 03:34:29;;;;;;;;;;;10.00;99.90;;;;;;8346961;28;19928;-73
2023/05/17 03:38:31;;;;;;;;;;;10.00;99.90;;;;;;8350624;28;19925;-74
2023/05/17 03:42:33;;;;;;;;;;;10.00;99.90;;;;;;8349049;28;19983;-74
2023/05/17 03:46:34;;;;;;;;;;;10.00;99.90;;;;;;8351188;28;19982;-74
2023/05/17 03:50:37;;;;;;;;;;;10.00;99.90;;;;;;8354258;28;19929;-73
2023/05/17 03:54:39;;;;;;;;;;;10.00;99.90;;;;;;8351152;28;19929;-73
2023/05/17 03:58:41;;;;;;;;;;;10.00;99.90;;;;;;8354040;28;20283;-73
2023/05/17 04:02:42;;;;;;;;;;;10.00;99.90;;;;;;8350673;28;19943;-73
2023/05/17 04:06:44;;;;;;;;;;;10.00;99.90;;;;;;8376544;28;20279;-73
2023/05/17 04:10:46;;;;;;;;;;;10.00;99.90;;;;;;8386558;28;19931;-73
2023/05/17 04:14:47;;;;;;;;;;;10.10;99.90;;;;;;8387370;28;19932;-73
2023/05/17 04:18:52;;;;;;;;;;;10.10;99.90;;;;;;8378062;28;20422;-73
2023/05/17 04:22:54;;;;;;;;;;;10.10;99.90;;;;;;8393693;28;19924;-73
2023/05/17 04:26:55;;;;;;;;;;;10.10;99.90;;;;;;8385473;28;19955;-74
2023/05/17 04:30:57;;;;;;;;;;;10.10;99.90;;;;;;8395540;28;19931;-73
2023/05/17 04:34:59;;;;;;;;;;;10.20;99.90;;;;;;8388948;28;20002;-74
2023/05/17 04:39:02;;;;;;;;;;;10.20;99.90;;;;;;8393075;28;19932;-73
2023/05/17 04:43:04;;;;;;;;;;;10.20;99.90;;;;;;8395547;28;19928;-73
2023/05/17 04:47:05;;;;;;;;;;;10.30;99.90;;;;;;8362617;28;19933;-73
2023/05/17 04:51:07;;;;;;;;;;;10.30;99.90;;;;;;8378164;28;19924;-73
2023/05/17 04:55:09;;;;;;;;;;;10.30;99.90;;;;;;8386139;28;19937;-73
2023/05/17 04:59:10;;;;;;;;;;;10.40;99.90;;;;;;8393567;28;19931;-73
2023/05/17 05:03:12;;;;;;;;;;;10.50;99.90;;;;;;8379671;28;19924;-73
2023/05/17 05:07:14;;;;;;;;;;;10.50;99.90;;;;;;8384802;28;19976;-73
2023/05/17 05:11:15;;;;;;;;;;;10.60;99.90;;;;;;8405590;28;19954;-73
2023/05/17 05:15:17;;;;;;;;;;;10.70;99.90;;;;;;8382268;28;20376;-73
2023/05/17 05:19:19;;;;;;;;;;;10.80;99.90;;;;;;8405621;28;19933;-73
2023/05/17 05:23:21;;;;;;;;;;;10.90;99.90;;;;;;8387863;28;19940;-74
2023/05/17 05:27:22;;;;;;;;;;;11.00;99.90;;;;;;8393644;28;19928;-73
2023/05/17 05:31:24;;;;;;;;;;;11.00;99.90;;;;;;8378527;28;19928;-73
2023/05/17 05:35:29;;;;;;;;;;;11.10;99.90;;;;;;8392433;28;19951;-74
2023/05/17 05:39:31;;;;;;;;;;;11.20;99.90;;;;;;8379123;28;19946;-73
2023/05/17 05:43:34;;;;;;;;;;;11.30;99.90;;;;;;8393450;28;20360;-73
2023/05/17 05:47:36;;;;;;;;;;;11.40;99.90;;;;;;8374616;28;19925;-73
2023/05/17 05:51:38;;;;;;;;;;;11.50;99.90;;;;;;8387913;28;19942;-73
2023/05/17 05:55:41;;;;;;;;;;;11.60;99.90;;;;;;8388743;28;20034;-73
2023/05/17 05:59:42;;;;;;;;;;;11.70;99.90;;;;;;8401690;28;19970;-73
2023/05/17 06:03:44;;;;;;;;;;;11.70;99.90;;;;;;8379728;28;19935;-73
2023/05/17 06:07:46;;;;;;;;;;;11.80;99.90;;;;;;8378468;28;19924;-73
2023/05/17 06:11:50;;;;;;;;;;;11.90;99.90;;;;;;8381525;28;19928;-73
2023/05/17 06:15:52;;;;;;;;;;;12.00;99.90;;;;;;8392320;28;20372;-73
2023/05/17 06:19:54;;;;;;;;;;;12.10;99.90;;;;;;8387106;28;19935;-73
2023/05/17 06:23:56;;;;;;;;;;;12.10;99.90;;;;;;8372004;28;20106;-73
2023/05/17 06:27:58;;;;;;;;;;;12.20;99.90;;;;;;8386246;28;19929;-73
2023/05/17 06:31:59;;;;;;;;;;;12.20;99.90;;;;;;8387839;28;19932;-73
2023/05/17 06:36:01;;;;;;;;;;;12.30;99.90;;;;;;8386415;28;19933;-72
2023/05/17 06:40:09;;;;;;;;;;;12.30;99.90;;;;;;8392799;28;19936;-73
2023/05/17 06:44:17;;;;;;;;;;;12.40;99.90;;;;;;8389602;28;19928;-72
2023/05/17 06:48:19;;;;;;;;;;;12.50;99.90;;;;;;8373356;28;20063;-73
2023/05/17 06:52:21;;;;;;;;;;;12.60;99.90;;;;;;8370187;28;20281;-73
2023/05/17 06:56:23;;;;;;;;;;;12.70;99.90;;;;;;8391773;28;19940;-73
2023/05/17 07:00:25;;;;;;;;;;;12.80;99.90;;;;;;8390905;28;19932;-73
2023/05/17 07:04:27;;;;;;;;;;;13.00;99.90;;;;;;8380820;28;20013;-73
2023/05/17 07:08:29;;;;;;;;;;;13.10;99.90;;;;;;8396100;28;19932;-73
2023/05/17 07:12:30;;;;;;;;;;;13.30;99.90;;;;;;8384027;28;19928;-72
2023/05/17 07:16:32;;;;;;;;;;;13.50;99.90;;;;;;8372625;28;19924;-72
2023/05/17 07:20:34;;;;;;;;;;;13.50;99.90;;;;;;8389306;28;19928;-73
2023/05/17 07:24:35;;;;;;;;;;;13.40;99.90;;;;;;8392876;28;19924;-73
2023/05/17 07:28:37;;;;;;;;;;;13.20;99.90;;;;;;8367668;28;19924;-73
2023/05/17 07:32:39;;;;;;;;;;;13.10;99.90;;;;;;8380353;28;19947;-72
2023/05/17 07:36:40;;;;;;;;;;;12.90;99.90;;;;;;8388539;28;19928;-73
2023/05/17 07:40:42;;;;;;;;;;;12.90;99.90;;;;;;8371600;28;19932;-73
2023/05/17 07:44:47;;;;;;;;;;;13.10;99.90;;;;;;8383720;28;19928;-72
2023/05/17 07:48:49;;;;;;;;;;;13.20;99.90;;;;;;8384043;28;19978;-73
2023/05/17 07:52:51;;;;;;;;;;;13.40;99.90;;;;;;8388787;28;19928;-73
2023/05/17 07:56:54;;;;;;;;;;;13.60;99.90;;;;;;8390667;28;19943;-73
2023/05/17 08:00:55;;;;;;;;;;;13.70;99.90;;;;;;8381832;28;19924;-73
2023/05/17 08:09:43;;;;;;;;;;;13.90;99.90;;;;;;8389504;28;19925;-73
2023/05/17 08:13:44;;;;;;;;;;;14.00;99.90;;;;;;8381162;28;19932;-73
2023/05/17 08:17:46;;;;;;;;;;;14.10;99.90;;;;;;8397559;28;19928;-73
2023/05/17 08:21:48;;;;;;;;;;;14.10;99.90;;;;;;8383933;28;19975;-73
2023/05/17 08:25:50;;;;;;;;;;;14.00;99.90;;;;;;8391644;28;20396;-73
2023/05/17 08:29:53;;;;;;;;;;;14.00;99.90;;;;;;8380584;28;19931;-73
2023/05/17 08:33:55;;;;;;;;;;;13.90;99.90;;;;;;8391969;28;19932;-73
2023/05/17 08:37:57;;;;;;;;;;;13.80;99.90;;;;;;8398636;28;20299;-73
2023/05/17 08:42:00;;;;;;;;;;;13.80;99.90;;;;;;8375007;28;19931;-73
2023/05/17 08:46:03;;;;;;;;;;;13.80;99.90;;;;;;8393146;28;19928;-73
2023/05/17 08:50:04;;;;;;;;;;;13.90;99.90;;;;;;8378836;28;20318;-73
2023/05/17 08:54:07;;;;;;;;;;;13.90;99.90;;;;;;8391095;28;19982;-73
2023/05/17 08:58:09;;;;;;;;;;;13.90;99.90;;;;;;8387783;28;19929;-73
2023/05/17 09:02:12;;;;;;;;;;;13.90;99.90;;;;;;8377406;28;19925;-73
2023/05/17 09:06:15;;;;;;;;;;;14.00;99.90;;;;;;8370853;28;19924;-74
2023/05/17 09:10:17;;;;;;;;;;;14.00;99.90;;;;;;8367048;28;19925;-74
2023/05/17 09:14:19;;;;;;;;;;;14.10;99.90;;;;;;8365730;28;19924;-74
2023/05/17 09:18:28;;;;;;;;;;;14.30;99.90;;;;;;8347363;28;20368;-74
2023/05/17 09:22:30;;;;;;;;;;;14.50;99.90;;;;;;8368123;28;20395;-73
2023/05/17 09:26:41;;;;;;;;;;;14.70;99.90;;;;;;8349340;28;20372;-74
2023/05/17 09:30:43;;;;;;;;;;;14.80;99.90;;;;;;8364377;28;19924;-73
2023/05/17 09:34:45;;;;;;;;;;;14.90;99.90;;;;;;8363362;28;20275;-73
2023/05/17 09:38:54;;;;;;;;;;;15.00;99.90;;;;;;8362631;28;19936;-73
2023/05/17 09:42:57;;;;;;;;;;;15.10;99.90;;;;;;8363884;28;19947;-73
2023/05/17 09:46:58;;;;;;;;;;;15.10;99.90;;;;;;8366356;28;19970;-73
2023/05/17 09:51:00;;;;;;;;;;;15.20;99.90;;;;;;8362737;28;19948;-73
2023/05/17 09:55:02;;;;;;;;;;;15.30;99.90;;;;;;8361872;28;19929;-73
2023/05/17 09:59:10;;;;;;;;;;;15.30;99.90;;;;;;8349896;28;19925;-73
2023/05/17 10:03:12;;;;;;;;;;;15.40;99.90;;;;;;8359127;28;19924;-74
2023/05/17 10:07:16;;;;;;;;;;;15.50;99.90;;;;;;8377927;28;19951;-74
2023/05/17 10:11:21;;;;;;;;;;;15.40;99.90;;;;;;8365031;28;19947;-73
2023/05/17 10:15:24;;;;;;;;;;;15.20;99.90;;;;;;8363296;28;19929;-73
2023/05/17 10:19:26;;;;;;;;;;;15.20;99.90;;;;;;8355216;28;20339;-73
2023/05/17 10:23:28;;;;;;;;;;;15.30;99.90;;;;;;8350914;28;20001;-73
2023/05/17 10:27:30;;;;;;;;;;;15.40;99.90;;;;;;8381950;28;19932;-73
2023/05/17 10:31:33;;;;;;;;;;;15.50;99.90;;;;;;8364560;28;20393;-74
2023/05/17 10:35:34;;;;;;;;;;;15.50;99.90;;;;;;8345031;28;20203;-73
2023/05/17 10:39:37;;;;;;;;;;;15.50;99.90;;;;;;8363539;28;19925;-74
2023/05/17 10:43:40;;;;;;;;;;;15.50;99.90;;;;;;8363635;28;19924;-74
2023/05/17 10:47:42;;;;;;;;;;;15.50;99.90;;;;;;8367524;28;20296;-73
2023/05/17 10:51:44;;;;;;;;;;;15.60;99.90;;;;;;8371780;28;19964;-73
2023/05/17 10:55:46;;;;;;;;;;;15.60;99.90;;;;;;8362038;28;19925;-74
2023/05/17 10:59:54;;;;;;;;;;;15.70;99.90;;;;;;8382296;28;20366;-73
2023/05/17 11:03:56;;;;;;;;;;;15.70;99.90;;;;;;8350445;28;19928;-74
2023/05/17 11:08:14;;;;;;;;;;;15.80;99.90;;;;;;8361217;28;19925;-75
2023/05/17 11:12:27;;;;;;;;;;;15.80;99.90;;;;;;8365595;28;19933;-73
2023/05/17 11:16:34;;;;;;;;;;;15.80;99.90;;;;;;8354551;28;19929;-73
2023/05/17 11:20:36;;;;;;;;;;;15.90;99.90;;;;;;8365392;28;19933;-74
2023/05/17 11:24:41;;;;;;;;;;;15.90;99.90;;;;;;8355471;28;19936;-74
2023/05/17 11:28:43;;;;;;;;;;;16.00;99.90;;;;;;8388305;28;19925;-74
2023/05/17 11:32:46;;;;;;;;;;;16.10;99.90;;;;;;8367030;28;19932;-74
2023/05/17 11:36:49;;;;;;;;;;;16.10;99.90;;;;;;8362423;28;19932;-73
2023/05/17 11:40:54;;;;;;;;;;;16.20;99.90;;;;;;8362932;28;19990;-75
2023/05/17 11:44:59;;;;;;;;;;;16.10;99.90;;;;;;8370940;28;20626;-74
2023/05/17 11:49:01;;;;;;;;;;;16.10;99.90;;;;;;8361211;28;19984;-74
2023/05/17 11:53:06;;;;;;;;;;;16.10;99.90;;;;;;8365622;28;19925;-74
2023/05/17 11:57:08;;;;;;;;;;;16.00;99.90;;;;;;8359478;28;19948;-73
2023/05/17 12:01:09;;;;;;;;;;;16.10;99.90;;;;;;8366523;28;20522;-74
2023/05/17 12:05:18;;;;;;;;;;;16.10;99.90;;;;;;8352971;28;19933;-74
2023/05/17 12:09:21;;;;;;;;;;;16.20;99.90;;;;;;8363317;28;19939;-74
2023/05/17 12:13:23;;;;;;;;;;;16.20;99.90;;;;;;8365155;28;19928;-73
2023/05/17 12:17:30;;;;;;;;;;;16.20;99.90;;;;;;8361524;28;19940;-74
2023/05/17 12:21:31;;;;;;;;;;;16.20;99.90;;;;;;8363176;28;19925;-74
2023/05/17 12:25:33;;;;;;;;;;;16.10;99.90;;;;;;8366637;28;19929;-74
2023/05/17 12:29:35;;;;;;;;;;;16.10;99.90;;;;;;8379190;28;19925;-74
2023/05/17 12:33:40;;;;;;;;;;;16.00;99.90;;;;;;8358535;28;19940;-73
2023/05/17 12:37:42;;;;;;;;;;;16.00;99.90;;;;;;8363496;28;19932;-74
2023/05/17 12:41:46;;;;;;;;;;;16.10;99.90;;;;;;8364122;28;19924;-74
2023/05/17 12:45:47;;;;;;;;;;;16.10;99.90;;;;;;8360845;28;19947;-74
2023/05/17 12:49:53;;;;;;;;;;;16.20;99.90;;;;;;8359646;28;20603;-74
2023/05/17 12:53:56;;;;;;;;;;;16.30;99.90;;;;;;8368327;28;19925;-74
2023/05/17 12:58:01;;;;;;;;;;;16.30;99.90;;;;;;8361908;28;20384;-73
2023/05/17 13:02:03;;;;;;;;;;;16.30;99.90;;;;;;8348051;28;20388;-74
2023/05/17 13:06:06;;;;;;;;;;;16.30;99.90;;;;;;8361583;28;19935;-73
2023/05/17 13:10:26;;;;;;;;;;;16.30;99.90;;;;;;8356087;28;20403;-73
2023/05/17 13:14:32;;;;;;;;;;;16.40;99.90;;;;;;8365891;28;19924;-74
2023/05/17 13:18:45;;;;;;;;;;;16.40;99.90;;;;;;8368174;28;19929;-73
2023/05/17 13:22:48;;;;;;;;;;;16.40;99.90;;;;;;8373689;28;20398;-74
2023/05/17 13:26:50;;;;;;;;;;;16.50;99.90;;;;;;8358136;28;19986;-74
2023/05/17 13:30:52;;;;;;;;;;;16.50;99.90;;;;;;8370212;28;19951;-73
2023/05/17 13:34:54;;;;;;;;;;;16.40;99.90;;;;;;8368741;28;19928;-73
2023/05/17 13:38:56;;;;;;;;;;;16.40;99.90;;;;;;8368529;28;19925;-73
2023/05/17 13:42:57;;;;;;;;;;;16.50;99.90;;;;;;8364264;28;19929;-73
2023/05/17 13:46:59;;;;;;;;;;;16.50;99.90;;;;;;8366206;28;19929;-73
2023/05/17 13:51:01;;;;;;;;;;;16.50;99.90;;;;;;8355925;28;20384;-73
2023/05/17 13:55:03;;;;;;;;;;;16.60;99.90;;;;;;8349106;28;19989;-73
2023/05/17 13:59:05;;;;;;;;;;;16.60;99.90;;;;;;8364107;28;20361;-73
2023/05/17 14:03:07;;;;;;;;;;;16.60;99.90;;;;;;8366070;28;20381;-73
2023/05/17 14:07:09;;;;;;;;;;;16.60;99.90;;;;;;8377373;28;19929;-73
2023/05/17 14:11:12;;;;;;;;;;;16.60;99.90;;;;;;8361531;28;21276;-73
2023/05/17 14:15:14;;;;;;;;;;;16.70;99.90;;;;;;8367764;28;19925;-73
2023/05/17 14:19:16;;;;;;;;;;;16.80;99.90;;;;;;8364825;28;19971;-73
2023/05/17 14:23:17;;;;;;;;;;;16.90;99.90;;;;;;8383442;28;20348;-74
2023/05/17 14:27:19;;;;;;;;;;;17.10;99.90;;;;;;8358152;28;19939;-73
2023/05/17 14:31:21;;;;;;;;;;;17.30;99.90;;;;;;8360384;28;19948;-73
2023/05/17 14:35:22;;;;;;;;;;;17.60;99.90;;;;;;8363041;28;20319;-73
2023/05/17 14:39:24;;;;;;;;;;;17.90;99.90;;;;;;8348873;28;19978;-73
2023/05/17 14:43:26;;;;;;;;;;;18.00;99.90;;;;;;8347966;28;19924;-73
2023/05/17 14:47:28;;;;;;;;;;;18.00;99.90;;;;;;8365219;28;19928;-74
2023/05/17 14:51:29;;;;;;;;;;;18.00;99.90;;;;;;8359833;28;20376;-73
2023/05/17 14:55:31;;;;;;;;;;;17.90;99.90;;;;;;8344090;28;19932;-73
2023/05/17 14:59:34;;;;;;;;;;;17.80;99.90;;;;;;8361884;28;19993;-74
2023/05/17 15:03:36;;;;;;;;;;;17.80;99.90;;;;;;8365642;28;19978;-73
2023/05/17 15:07:38;;;;;;;;;;;17.80;99.90;;;;;;8364521;28;19928;-74
2023/05/17 15:11:40;;;;;;;;;;;17.80;99.90;;;;;;8366501;28;19928;-73
2023/05/17 15:15:43;;;;;;;;;;;17.90;99.90;;;;;;8366902;28;19936;-74
2023/05/17 15:29:50;;;;;;;;;;;18.20;99.90;;;;;;8367755;28;19927;-73
2023/05/17 15:33:52;;;;;;;;;;;18.30;99.90;;;;;;8362666;28;19994;-73
2023/05/17 15:37:56;;;;;;;;;;;18.30;99.90;;;;;;8351083;28;20375;-73
2023/05/17 15:41:57;;;;;;;;;;;18.40;99.90;;;;;;8361711;28;20376;-73
2023/05/17 15:45:59;;;;;;;;;;;18.60;99.90;;;;;;8358269;28;19925;-74
2023/05/17 15:50:01;;;;;;;;;;;18.80;99.90;;;;;;8364328;28;19929;-73
2023/05/17 15:54:03;;;;;;;;;;;19.20;99.90;;;;;;8365224;28;20049;-73
2023/05/17 15:58:08;;;;;;;;;;;19.70;99.90;;;;;;8361972;28;20306;-74
2023/05/17 16:02:09;;;;;;;;;;;20.20;99.90;;;;;;8376976;28;19925;-74
2023/05/17 16:06:13;;;;;;;;;;;20.60;99.90;;;;;;8358289;28;19996;-74
2023/05/17 16:10:14;;;;;;;;;;;21.10;99.90;;;;;;8359824;28;19929;-74
2023/05/17 16:14:16;;;;;;;;;;;21.40;99.90;;;;;;8363449;28;19976;-74
2023/05/17 16:18:18;;;;;;;;;;;21.70;99.90;;;;;;8346248;28;19924;-74
2023/05/17 16:22:20;;;;;;;;;;;21.80;99.90;;;;;;8363460;28;20347;-73
2023/05/17 16:26:22;;;;;;;;;;;21.90;99.90;;;;;;8356071;28;20343;-74
2023/05/17 16:30:23;;;;;;;;;;;22.00;99.90;;;;;;8363987;28;19939;-74
2023/05/17 16:34:27;;;;;;;;;;;22.10;99.90;;;;;;8363913;28;19940;-74
2023/05/17 16:38:29;;;;;;;;;;;22.20;99.90;;;;;;8360845;28;20392;-74
2023/05/17 16:42:30;;;;;;;;;;;22.20;99.90;;;;;;8359226;28;19928;-74
2023/05/17 16:46:32;;;;;;;;;;;22.20;99.90;;;;;;8366070;28;19931;-74
2023/05/17 16:50:34;;;;;;;;;;;22.10;99.90;;;;;;8358310;28;19928;-74
2023/05/17 16:54:37;;;;;;;;;;;21.90;99.90;;;;;;8375883;28;20394;-74
2023/05/17 17:09:03;;;;;;;;;;;21.20;99.90;;;;;;8349455;28;19931;-73
2023/05/17 17:13:08;;;;;;;;;;;20.70;99.90;;;;;;8367122;28;19925;-74
2023/05/17 17:17:10;;;;;;;;;;;20.30;99.70;;;;;;8349924;28;20384;-75
2023/05/17 17:21:12;;;;;;;;;;;20.00;99.70;;;;;;8362410;28;19925;-73
2023/05/17 17:25:14;;;;;;;;;;;19.60;99.30;;;;;;8348798;28;19932;-74
2023/05/17 17:29:15;;;;;;;;;;;19.30;99.00;;;;;;8363651;28;20441;-74
2023/05/17 17:33:17;;;;;;;;;;;19.00;98.70;;;;;;8383354;28;19932;-74
2023/05/17 17:37:19;;;;;;;;;;;18.80;98.20;;;;;;8373131;28;19928;-74
2023/05/17 17:41:22;;;;;;;;;;;18.60;97.90;;;;;;8389746;28;19963;-74
2023/05/17 17:45:23;;;;;;;;;;;18.40;97.80;;;;;;8365492;28;19931;-74
2023/05/17 17:49:25;;;;;;;;;;;18.20;97.50;;;;;;8377992;28;19925;-73
2023/05/17 17:53:27;;;;;;;;;;;18.10;97.40;;;;;;8364727;28;19925;-73
2023/05/17 17:57:30;;;;;;;;;;;18.00;97.20;;;;;;8365692;28;19928;-74
2023/05/17 18:01:33;;;;;;;;;;;17.80;97.20;;;;;;8375473;28;19991;-74
2023/05/17 18:05:35;;;;;;;;;;;17.70;97.20;;;;;;8363844;28;19959;-73
2023/05/17 18:09:37;;;;;;;;;;;17.60;97.00;;;;;;8364389;28;20373;-73
2023/05/17 18:13:39;;;;;;;;;;;17.50;97.00;;;;;;8353864;28;19936;-73
2023/05/17 18:17:41;;;;;;;;;;;17.40;96.90;;;;;;8364122;28;20380;-74
2023/05/17 18:21:42;;;;;;;;;;;17.20;96.70;;;;;;8363784;28;20006;-73
2023/05/17 18:25:47;;;;;;;;;;;17.10;96.70;;;;;;8359992;28;19924;-73
2023/05/17 18:29:49;;;;;;;;;;;17.00;96.60;;;;;;8381892;28;19958;-74
2023/05/17 18:33:51;;;;;;;;;;;16.80;96.60;;;;;;8363082;28;20023;-73
2023/05/17 18:37:54;;;;;;;;;;;16.70;96.60;;;;;;8364421;28;19925;-73
2023/05/17 18:41:56;;;;;;;;;;;16.60;96.50;;;;;;8382544;28;20403;-73
2023/05/17 18:45:58;;;;;;;;;;;16.40;96.30;;;;;;8356353;28;19928;-74
2023/05/17 18:49:59;;;;;;;;;;;16.30;96.20;;;;;;8365383;28;19933;-73
2023/05/17 18:54:02;;;;;;;;;;;16.10;96.10;;;;;;8373425;28;19936;-74
2023/05/17 18:58:04;;;;;;;;;;;16.00;96.00;;;;;;8357123;28;19981;-73
2023/05/17 19:02:06;;;;;;;;;;;15.90;96.00;;;;;;8363041;28;19924;-73
2023/05/17 19:06:08;;;;;;;;;;;15.70;95.80;;;;;;8357445;28;20359;-73
2023/05/17 19:10:10;;;;;;;;;;;15.60;95.80;;;;;;8356548;28;19929;-73
2023/05/17 19:14:13;;;;;;;;;;;15.50;95.70;;;;;;8366181;28;20423;-74
2023/05/17 19:18:15;;;;;;;;;;;15.30;95.60;;;;;;8366316;28;19925;-73
2023/05/17 19:22:16;;;;;;;;;;;15.20;95.50;;;;;;8360692;28;19939;-73
2023/05/17 19:26:18;;;;;;;;;;;15.10;95.40;;;;;;8360064;28;19929;-73
2023/05/17 19:30:19;;;;;;;;;;;15.00;95.40;;;;;;8354209;28;19932;-74
2023/05/17 19:34:21;;;;;;;;;;;14.90;95.30;;;;;;8346741;28;19925;-74
2023/05/17 19:38:23;;;;;;;;;;;14.80;95.20;;;;;;8360826;28;19990;-73
2023/05/17 19:42:24;;;;;;;;;;;14.70;95.20;;;;;;8354900;28;19958;-73
2023/05/17 19:46:26;;;;;;;;;;;14.60;95.10;;;;;;8355659;28;19939;-73
2023/05/17 19:50:28;;;;;;;;;;;14.50;95.10;;;;;;8342462;28;19947;-74
2023/05/17 19:54:30;;;;;;;;;;;14.50;95.00;;;;;;8356944;28;20019;-74
2023/05/17 19:58:31;;;;;;;;;;;14.30;94.90;;;;;;8357379;28;20402;-75
2023/05/17 20:02:33;;;;;;;;;;;14.20;94.90;;;;;;8361484;28;20039;-73
2023/05/17 20:06:35;;;;;;;;;;;14.10;94.90;;;;;;8357652;28;19924;-74
2023/05/17 20:10:37;;;;;;;;;;;14.00;94.90;;;;;;8356511;28;20315;-73
2023/05/17 20:14:38;;;;;;;;;;;14.00;94.90;;;;;;8357876;28;19928;-73
2023/05/17 20:18:41;;;;;;;;;;;13.90;94.80;;;;;;8362198;28;19936;-74
2023/05/17 20:22:44;;;;;;;;;;;13.80;94.80;;;;;;8348587;28;19960;-73
2023/05/17 20:26:47;;;;;;;;;;;13.80;94.80;;;;;;8360689;28;19931;-73
2023/05/17 20:30:49;;;;;;;;;;;13.70;94.80;;;;;;8347170;28;19925;-74
2023/05/17 20:34:51;;;;;;;;;;;13.60;94.80;;;;;;8362605;28;19947;-73
2023/05/17 20:38:52;;;;;;;;;;;13.50;94.80;;;;;;8368863;28;19935;-73
2023/05/17 20:42:55;;;;;;;;;;;13.50;94.80;;;;;;8366129;28;19928;-73
2023/05/17 20:46:57;;;;;;;;;;;13.40;94.70;;;;;;8369696;28;19928;-73
2023/05/17 20:50:59;;;;;;;;;;;13.40;94.70;;;;;;8349148;28;20469;-73
2023/05/17 20:55:01;;;;;;;;;;;13.30;94.70;;;;;;8366664;28;19935;-73
2023/05/17 20:59:03;;;;;;;;;;;13.20;94.70;;;;;;8369554;28;19994;-74
2023/05/17 21:03:04;;;;;;;;;;;13.10;94.70;;;;;;8375263;28;20081;-73
2023/05/17 21:07:09;;;;;;;;;;;13.10;94.70;;;;;;8389189;28;19932;-74
2023/05/17 21:11:17;;;;;;;;;;;12.90;94.70;;;;;;8365980;28;19931;-74
2023/05/17 21:15:19;;;;;;;;;;;12.80;94.70;;;;;;8377937;28;19990;-74
2023/05/17 21:19:20;;;;;;;;;;;12.70;94.80;;;;;;8366646;28;19936;-74
2023/05/17 21:23:22;;;;;;;;;;;12.60;94.90;;;;;;8392912;28;19963;-73
2023/05/17 21:27:24;;;;;;;;;;;12.60;94.90;;;;;;8389991;28;19928;-73
2023/05/17 21:31:28;;;;;;;;;;;12.60;94.80;;;;;;8392004;28;19932;-74
2023/05/17 21:35:30;;;;;;;;;;;12.50;94.70;;;;;;8390791;28;19931;-73
2023/05/17 21:39:31;;;;;;;;;;;12.40;94.60;;;;;;8370846;28;19941;-73
2023/05/17 21:43:33;;;;;;;;;;;12.40;94.60;;;;;;8379983;28;19971;-74
2023/05/17 21:47:35;;;;;;;;;;;12.30;94.60;;;;;;8385592;28;19925;-73
2023/05/17 21:51:37;;;;;;;;;;;12.20;94.50;;;;;;8383328;28;19969;-74
2023/05/17 21:55:38;;;;;;;;;;;12.10;94.50;;;;;;8390874;28;19943;-73
2023/05/17 21:59:57;;;;;;;;;;;12.10;94.60;;;;;;8377559;28;19925;-74
2023/05/17 22:03:59;;;;;;;;;;;12.10;94.60;;;;;;8387134;28;19925;-74
2023/05/17 22:08:00;;;;;;;;;;;12.00;94.50;;;;;;8390515;28;19983;-73
2023/05/17 22:12:07;;;;;;;;;;;12.00;94.50;;;;;;8374034;28;19925;-74
2023/05/17 22:16:09;;;;;;;;;;;12.00;94.50;;;;;;8390073;28;19935;-74
2023/05/17 22:20:10;;;;;;;;;;;11.90;94.40;;;;;;8385926;28;19986;-73
2023/05/17 22:24:13;;;;;;;;;;;11.80;94.40;;;;;;8365936;28;20391;-74
2023/05/17 22:28:15;;;;;;;;;;;11.80;94.40;;;;;;8385854;28;19924;-73
2023/05/17 22:32:17;;;;;;;;;;;11.70;94.30;;;;;;8375599;28;19924;-74
2023/05/17 22:36:23;;;;;;;;;;;11.60;94.30;;;;;;8385835;28;19924;-73
2023/05/17 22:40:25;;;;;;;;;;;11.60;94.40;;;;;;8399441;28;20028;-73
2023/05/17 22:44:26;;;;;;;;;;;11.60;94.40;;;;;;8383295;28;19932;-73
2023/05/17 22:48:29;;;;;;;;;;;11.50;94.30;;;;;;8369646;28;19925;-73
2023/05/17 22:52:31;;;;;;;;;;;11.50;94.30;;;;;;8394809;28;19937;-73
2023/05/17 22:56:33;;;;;;;;;;;11.50;94.40;;;;;;8368130;28;19976;-73
2023/05/17 23:00:34;;;;;;;;;;;11.40;94.30;;;;;;8372176;28;19944;-73
2023/05/17 23:04:36;;;;;;;;;;;11.30;94.20;;;;;;8383440;28;19925;-73
2023/05/17 23:08:38;;;;;;;;;;;11.20;94.20;;;;;;8399638;28;19932;-73
2023/05/17 23:12:40;;;;;;;;;;;11.10;94.10;;;;;;8387745;28;19924;-73
2023/05/17 23:16:42;;;;;;;;;;;11.00;94.10;;;;;;8391057;28;19932;-74
2023/05/17 23:20:45;;;;;;;;;;;11.00;94.10;;;;;;8397958;28;19925;-73
2023/05/17 23:24:47;;;;;;;;;;;10.90;94.10;;;;;;8370571;28;20323;-73
2023/05/17 23:28:52;;;;;;;;;;;10.80;94.10;;;;;;8369378;28;19924;-74
2023/05/17 23:32:54;;;;;;;;;;;10.70;94.10;;;;;;8375668;28;19932;-73
2023/05/17 23:36:55;;;;;;;;;;;10.60;94.10;;;;;;8385717;28;19925;-74
2023/05/17 23:40:59;;;;;;;;;;;10.50;94.10;;;;;;8371119;28;19977;-74
2023/05/17 23:45:01;;;;;;;;;;;10.50;94.40;;;;;;8383119;28;19932;-74
2023/05/17 23:49:04;;;;;;;;;;;10.50;94.40;;;;;;8385149;28;19947;-73
2023/05/17 23:53:08;;;;;;;;;;;10.40;94.10;;;;;;8385502;28;19977;-74
2023/05/17 23:57:10;;;;;;;;;;;10.30;94.40;;;;;;8385034;28;20000;-74
